sensor_id;sensor_type;location;lat;lon;timestamp;pressure;altitude;pressure_sealevel;temperature;humidity
10824;BME280;39116;59.332;18.034;2023-09-19T00:01:51;99957.25;;;16.64;100.00
10824;BME280;39116;59.332;18.034;2023-09-19T00:04:13;99964.53;;;16.86;100.00
10824;BME280;39116;59.332;18.034;2023-09-19T00:06:35;99950.59;;;16.84;100.00
10824;BME280;39116;59.332;18.034;2023-09-19T00:08:57;99956.06;;;17.04;100.00
10824;BME280;39116;59.332;18.034;2023-09-19T00:11:21;99945.72;;;17.00;100.00
10824;BME280;39116;59.332;18.034;2023-09-19T00:13:47;99944.97;;;16.96;100.00
10824;BME280;39116;59.332;18.034;2023-09-19T00:16:10;99936.19;;;16.95;100.00
10824;BME280;39116;59.332;18.034;2023-09-19T00:18:34;99940.59;;;16.95;100.00
10824;BME280;39116;59.332;18.034;2023-09-19T00:20:57;99923.97;;;16.94;100.00
10824;BME280;39116;59.332;18.034;2023-09-19T00:23:19;99928.34;;;16.94;100.00
10824;BME280;39116;59.332;18.034;2023-09-19T00:25:41;99925.28;;;17.08;100.00
10824;BME280;39116;59.332;18.034;2023-09-19T00:28:04;99917.41;;;17.08;100.00
10824;BME280;39116;59.332;18.034;2023-09-19T00:30:26;99919.09;;;17.10;100.00
10824;BME280;39116;59.332;18.034;2023-09-19T00:32:50;99908.66;;;17.07;100.00
10824;BME280;39116;59.332;18.034;2023-09-19T00:35:16;99896.25;;;16.83;100.00
10824;BME280;39116;59.332;18.034;2023-09-19T00:37:39;99778.09;;;16.23;100.00
10824;BME280;39116;59.332;18.034;2023-09-19T00:40:01;99900.78;;;17.07;100.00
10824;BME280;39116;59.332;18.034;2023-09-19T00:42:23;99891.28;;;17.03;100.00
10824;BME280;39116;59.332;18.034;2023-09-19T00:44:46;99882.00;;;16.91;100.00
10824;BME280;39116;59.332;18.034;2023-09-19T00:47:08;99893.78;;;17.06;100.00
10824;BME280;39116;59.332;18.034;2023-09-19T00:49:35;99893.66;;;17.11;100.00
10824;BME280;39116;59.332;18.034;2023-09-19T00:52:00;99875.63;;;17.25;100.00
10824;BME280;39116;59.332;18.034;2023-09-19T00:54:21;99781.75;;;16.74;100.00
10824;BME280;39116;59.332;18.034;2023-09-19T00:56:45;99868.47;;;17.30;100.00
10824;BME280;39116;59.332;18.034;2023-09-19T00:59:09;99867.69;;;17.27;100.00
10824;BME280;39116;59.332;18.034;2023-09-19T01:01:32;99866.94;;;17.23;100.00
10824;BME280;39116;59.332;18.034;2023-09-19T01:03:54;99858.78;;;17.31;100.00
10824;BME280;39116;59.332;18.034;2023-09-19T01:06:16;99863.38;;;17.24;100.00
10824;BME280;39116;59.332;18.034;2023-09-19T01:08:39;99853.25;;;17.39;100.00
10824;BME280;39116;59.332;18.034;2023-09-19T01:11:08;99848.03;;;17.37;100.00
10824;BME280;39116;59.332;18.034;2023-09-19T01:13:44;99847.38;;;17.32;100.00
10824;BME280;39116;59.332;18.034;2023-09-19T01:16:15;99828.06;;;17.31;100.00
10824;BME280;39116;59.332;18.034;2023-09-19T01:18:48;99810.69;;;17.27;100.00
10824;BME280;39116;59.332;18.034;2023-09-19T01:21:21;99807.59;;;17.41;100.00
10824;BME280;39116;59.332;18.034;2023-09-19T01:24:03;99813.91;;;17.35;100.00
10824;BME280;39116;59.332;18.034;2023-09-19T01:26:44;99718.09;;;16.92;100.00
10824;BME280;39116;59.332;18.034;2023-09-19T01:29:23;99790.72;;;17.47;100.00
10824;BME280;39116;59.332;18.034;2023-09-19T01:31:57;99805.66;;;17.46;100.00
10824;BME280;39116;59.332;18.034;2023-09-19T01:34:19;99803.03;;;17.46;100.00
10824;BME280;39116;59.332;18.034;2023-09-19T01:36:41;99781.03;;;17.47;100.00
10824;BME280;39116;59.332;18.034;2023-09-19T01:39:07;99772.59;;;17.39;100.00
10824;BME280;39116;59.332;18.034;2023-09-19T01:41:51;99776.94;;;17.64;100.00
10824;BME280;39116;59.332;18.034;2023-09-19T01:44:22;99757.47;;;17.44;100.00
10824;BME280;39116;59.332;18.034;2023-09-19T01:46:46;99775.25;;;17.38;100.00
10824;BME280;39116;59.332;18.034;2023-09-19T01:49:22;99763.28;;;17.54;100.00
10824;BME280;39116;59.332;18.034;2023-09-19T01:51:52;99744.69;;;17.59;100.00
10824;BME280;39116;59.332;18.034;2023-09-19T01:54:19;99748.22;;;17.58;100.00
10824;BME280;39116;59.332;18.034;2023-09-19T01:56:50;99742.91;;;17.59;100.00
10824;BME280;39116;59.332;18.034;2023-09-19T01:59:23;99724.53;;;17.58;100.00
10824;BME280;39116;59.332;18.034;2023-09-19T02:01:48;99688.50;;;17.36;100.00
10824;BME280;39116;59.332;18.034;2023-09-19T02:04:12;99727.88;;;17.63;100.00
10824;BME280;39116;59.332;18.034;2023-09-19T02:06:34;99710.59;;;17.55;100.00
10824;BME280;39116;59.332;18.034;2023-09-19T02:08:56;99699.47;;;17.47;100.00
10824;BME280;39116;59.332;18.034;2023-09-19T02:11:19;99725.28;;;17.61;100.00
10824;BME280;39116;59.332;18.034;2023-09-19T02:13:41;99708.75;;;17.58;100.00
10824;BME280;39116;59.332;18.034;2023-09-19T02:16:04;99674.50;;;17.35;100.00
10824;BME280;39116;59.332;18.034;2023-09-19T02:18:26;99704.28;;;17.60;100.00
10824;BME280;39116;59.332;18.034;2023-09-19T02:20:50;99706.91;;;17.60;100.00
10824;BME280;39116;59.332;18.034;2023-09-19T02:23:13;99703.50;;;17.58;100.00
10824;BME280;39116;59.332;18.034;2023-09-19T02:25:36;99694.81;;;17.55;100.00
10824;BME280;39116;59.332;18.034;2023-09-19T02:27:58;99671.91;;;17.58;100.00
10824;BME280;39116;59.332;18.034;2023-09-19T02:30:21;99653.06;;;17.46;100.00
10824;BME280;39116;59.332;18.034;2023-09-19T02:32:46;99665.16;;;17.50;100.00
10824;BME280;39116;59.332;18.034;2023-09-19T02:35:10;99668.94;;;17.67;100.00
10824;BME280;39116;59.332;18.034;2023-09-19T02:37:34;99658.59;;;17.62;100.00
10824;BME280;39116;59.332;18.034;2023-09-19T02:39:56;99639.50;;;17.57;100.00
10824;BME280;39116;59.332;18.034;2023-09-19T02:42:18;99650.56;;;17.65;100.00
10824;BME280;39116;59.332;18.034;2023-09-19T02:44:40;99647.97;;;17.64;100.00
10824;BME280;39116;59.332;18.034;2023-09-19T02:47:02;99645.56;;;17.59;100.00
10824;BME280;39116;59.332;18.034;2023-09-19T02:49:24;99624.97;;;17.69;100.00
10824;BME280;39116;59.332;18.034;2023-09-19T02:51:46;99626.72;;;17.70;100.00
10824;BME280;39116;59.332;18.034;2023-09-19T02:54:10;99606.69;;;17.66;100.00
10824;BME280;39116;59.332;18.034;2023-09-19T02:56:32;99606.44;;;17.50;100.00
10824;BME280;39116;59.332;18.034;2023-09-19T02:58:56;99607.03;;;17.56;100.00
10824;BME280;39116;59.332;18.034;2023-09-19T03:01:18;99594.81;;;17.08;100.00
10824;BME280;39116;59.332;18.034;2023-09-19T03:03:41;99593.38;;;17.25;100.00
10824;BME280;39116;59.332;18.034;2023-09-19T03:06:03;99588.56;;;17.12;100.00
10824;BME280;39116;59.332;18.034;2023-09-19T03:08:25;99578.13;;;17.33;100.00
10824;BME280;39116;59.332;18.034;2023-09-19T03:10:48;99571.81;;;17.61;100.00
10824;BME280;39116;59.332;18.034;2023-09-19T03:13:10;99552.59;;;17.59;100.00
10824;BME280;39116;59.332;18.034;2023-09-19T03:15:32;99534.47;;;17.51;100.00
10824;BME280;39116;59.332;18.034;2023-09-19T03:17:54;99535.19;;;17.54;100.00
10824;BME280;39116;59.332;18.034;2023-09-19T03:20:18;99528.34;;;17.50;100.00
10824;BME280;39116;59.332;18.034;2023-09-19T03:22:41;99519.63;;;17.50;100.00
10824;BME280;39116;59.332;18.034;2023-09-19T03:25:03;99508.63;;;17.16;100.00
10824;BME280;39116;59.332;18.034;2023-09-19T03:27:29;99510.47;;;17.14;100.00
10824;BME280;39116;59.332;18.034;2023-09-19T03:29:51;99510.91;;;17.26;100.00
10824;BME280;39116;59.332;18.034;2023-09-19T03:32:13;99489.38;;;17.16;100.00
10824;BME280;39116;59.332;18.034;2023-09-19T03:34:36;99492.09;;;16.91;100.00
10824;BME280;39116;59.332;18.034;2023-09-19T03:36:58;99498.78;;;17.22;100.00
10824;BME280;39116;59.332;18.034;2023-09-19T03:39:20;99505.09;;;17.17;100.00
10824;BME280;39116;59.332;18.034;2023-09-19T03:41:43;99348.28;;;16.25;100.00
10824;BME280;39116;59.332;18.034;2023-09-19T03:44:07;99376.13;;;16.53;100.00
10824;BME280;39116;59.332;18.034;2023-09-19T03:46:29;99478.19;;;17.11;100.00
10824;BME280;39116;59.332;18.034;2023-09-19T03:48:52;99467.16;;;17.01;100.00
10824;BME280;39116;59.332;18.034;2023-09-19T03:51:15;99475.72;;;17.06;100.00
10824;BME280;39116;59.332;18.034;2023-09-19T03:53:37;99472.88;;;17.12;100.00
10824;BME280;39116;59.332;18.034;2023-09-19T03:55:58;99372.38;;;16.60;100.00
10824;BME280;39116;59.332;18.034;2023-09-19T03:58:21;99463.63;;;17.24;100.00
10824;BME280;39116;59.332;18.034;2023-09-19T04:00:45;99476.59;;;17.29;100.00
10824;BME280;39116;59.332;18.034;2023-09-19T04:03:07;99475.56;;;17.33;100.00
10824;BME280;39116;59.332;18.034;2023-09-19T04:05:31;99458.88;;;17.34;100.00
10824;BME280;39116;59.332;18.034;2023-09-19T04:07:53;99467.78;;;17.30;100.00
10824;BME280;39116;59.332;18.034;2023-09-19T04:10:15;99459.34;;;17.22;100.00
10824;BME280;39116;59.332;18.034;2023-09-19T04:12:37;99463.75;;;17.21;100.00
10824;BME280;39116;59.332;18.034;2023-09-19T04:14:59;99459.47;;;17.18;100.00
10824;BME280;39116;59.332;18.034;2023-09-19T04:17:23;99467.78;;;17.30;100.00
10824;BME280;39116;59.332;18.034;2023-09-19T04:19:44;99459.84;;;17.09;100.00
10824;BME280;39116;59.332;18.034;2023-09-19T04:22:07;99462.88;;;17.21;100.00
10824;BME280;39116;59.332;18.034;2023-09-19T04:24:29;99455.00;;;17.21;100.00
10824;BME280;39116;59.332;18.034;2023-09-19T04:26:51;99461.19;;;17.20;100.00
10824;BME280;39116;59.332;18.034;2023-09-19T04:29:13;99447.00;;;17.24;100.00
10824;BME280;39116;59.332;18.034;2023-09-19T04:31:35;99446.31;;;17.18;100.00
10824;BME280;39116;59.332;18.034;2023-09-19T04:34:01;99441.63;;;17.27;100.00
10824;BME280;39116;59.332;18.034;2023-09-19T04:36:23;99455.78;;;17.23;100.00
10824;BME280;39116;59.332;18.034;2023-09-19T04:38:45;99457.50;;;17.24;100.00
10824;BME280;39116;59.332;18.034;2023-09-19T04:41:07;99456.59;;;17.25;100.00
10824;BME280;39116;59.332;18.034;2023-09-19T04:43:29;99459.25;;;17.25;100.00
10824;BME280;39116;59.332;18.034;2023-09-19T04:45:51;99448.47;;;17.31;100.00
10824;BME280;39116;59.332;18.034;2023-09-19T04:48:16;99430.53;;;16.96;100.00
10824;BME280;39116;59.332;18.034;2023-09-19T04:50:39;99426.56;;;17.08;100.00
10824;BME280;39116;59.332;18.034;2023-09-19T04:53:01;99418.00;;;17.25;100.00
10824;BME280;39116;59.332;18.034;2023-09-19T04:55:23;99409.78;;;17.33;100.00
10824;BME280;39116;59.332;18.034;2023-09-19T04:57:45;99413.16;;;17.36;100.00
10824;BME280;39116;59.332;18.034;2023-09-19T05:00:08;99389.59;;;17.33;100.00
10824;BME280;39116;59.332;18.034;2023-09-19T05:02:33;99398.38;;;17.34;100.00
10824;BME280;39116;59.332;18.034;2023-09-19T05:04:55;99401.06;;;17.32;100.00
10824;BME280;39116;59.332;18.034;2023-09-19T05:07:21;99394.41;;;17.24;100.00
10824;BME280;39116;59.332;18.034;2023-09-19T05:09:46;99371.59;;;17.02;100.00
10824;BME280;39116;59.332;18.034;2023-09-19T05:12:08;99388.75;;;17.33;100.00
10824;BME280;39116;59.332;18.034;2023-09-19T05:14:31;99384.25;;;17.14;100.00
10824;BME280;39116;59.332;18.034;2023-09-19T05:16:53;99387.13;;;17.08;100.00
10824;BME280;39116;59.332;18.034;2023-09-19T05:19:15;99382.13;;;17.45;100.00
10824;BME280;39116;59.332;18.034;2023-09-19T05:21:37;99363.66;;;17.46;100.00
10824;BME280;39116;59.332;18.034;2023-09-19T05:24:01;99349.06;;;17.17;100.00
10824;BME280;39116;59.332;18.034;2023-09-19T05:26:23;99357.97;;;17.14;100.00
10824;BME280;39116;59.332;18.034;2023-09-19T05:28:45;99359.06;;;17.09;100.00
10824;BME280;39116;59.332;18.034;2023-09-19T05:31:08;99348.56;;;17.29;100.00
10824;BME280;39116;59.332;18.034;2023-09-19T05:33:30;99345.75;;;17.34;100.00
10824;BME280;39116;59.332;18.034;2023-09-19T05:35:53;99349.97;;;17.38;100.00
10824;BME280;39116;59.332;18.034;2023-09-19T05:38:16;99343.53;;;17.25;100.00
10824;BME280;39116;59.332;18.034;2023-09-19T05:40:41;99340.63;;;17.31;100.00
10824;BME280;39116;59.332;18.034;2023-09-19T05:43:03;99334.19;;;17.38;100.00
10824;BME280;39116;59.332;18.034;2023-09-19T05:45:26;99326.69;;;17.49;100.00
10824;BME280;39116;59.332;18.034;2023-09-19T05:47:48;99317.75;;;17.53;100.00
10824;BME280;39116;59.332;18.034;2023-09-19T05:50:10;99319.13;;;17.62;100.00
10824;BME280;39116;59.332;18.034;2023-09-19T05:52:32;99315.63;;;17.62;100.00
10824;BME280;39116;59.332;18.034;2023-09-19T05:54:54;99312.06;;;17.42;100.00
10824;BME280;39116;59.332;18.034;2023-09-19T05:57:18;99319.72;;;17.48;100.00
10824;BME280;39116;59.332;18.034;2023-09-19T05:59:40;99293.94;;;17.36;100.00
10824;BME280;39116;59.332;18.034;2023-09-19T06:02:03;99317.34;;;17.42;100.00
10824;BME280;39116;59.332;18.034;2023-09-19T06:04:26;99316.16;;;17.49;100.00
10824;BME280;39116;59.332;18.034;2023-09-19T06:06:48;99320.44;;;17.52;100.00
10824;BME280;39116;59.332;18.034;2023-09-19T06:09:10;99305.88;;;17.84;100.00
10824;BME280;39116;59.332;18.034;2023-09-19T06:11:32;99300.09;;;17.35;100.00
10824;BME280;39116;59.332;18.034;2023-09-19T06:13:56;99303.16;;;17.46;100.00
10824;BME280;39116;59.332;18.034;2023-09-19T06:16:18;99308.31;;;17.48;100.00
10824;BME280;39116;59.332;18.034;2023-09-19T06:18:40;99322.19;;;17.51;100.00
10824;BME280;39116;59.332;18.034;2023-09-19T06:21:02;99222.28;;;16.90;100.00
10824;BME280;39116;59.332;18.034;2023-09-19T06:23:27;99313.94;;;17.61;100.00
10824;BME280;39116;59.332;18.034;2023-09-19T06:25:49;99308.91;;;17.54;100.00
10824;BME280;39116;59.332;18.034;2023-09-19T06:28:11;99293.06;;;17.56;100.00
10824;BME280;39116;59.332;18.034;2023-09-19T06:30:35;99294.56;;;17.62;100.00
10824;BME280;39116;59.332;18.034;2023-09-19T06:33:00;99295.69;;;17.56;100.00
10824;BME280;39116;59.332;18.034;2023-09-19T06:35:25;99298.28;;;17.58;100.00
10824;BME280;39116;59.332;18.034;2023-09-19T06:37:47;99297.00;;;17.66;100.00
10824;BME280;39116;59.332;18.034;2023-09-19T06:40:11;99292.72;;;17.84;100.00
10824;BME280;39116;59.332;18.034;2023-09-19T06:42:34;99288.50;;;17.80;100.00
10824;BME280;39116;59.332;18.034;2023-09-19T06:44:57;99288.34;;;17.83;100.00
10824;BME280;39116;59.332;18.034;2023-09-19T06:47:20;99292.38;;;17.92;100.00
10824;BME280;39116;59.332;18.034;2023-09-19T06:49:42;99277.16;;;17.78;100.00
10824;BME280;39116;59.332;18.034;2023-09-19T06:52:05;99273.81;;;17.74;100.00
10824;BME280;39116;59.332;18.034;2023-09-19T06:54:27;99236.84;;;17.78;100.00
10824;BME280;39116;59.332;18.034;2023-09-19T06:56:51;99265.69;;;18.00;100.00
10824;BME280;39116;59.332;18.034;2023-09-19T06:59:15;99260.06;;;17.88;100.00
10824;BME280;39116;59.332;18.034;2023-09-19T07:01:37;99280.63;;;17.80;100.00
10824;BME280;39116;59.332;18.034;2023-09-19T07:04:01;99278.97;;;17.78;100.00
10824;BME280;39116;59.332;18.034;2023-09-19T07:06:23;99276.19;;;17.81;100.00
10824;BME280;39116;59.332;18.034;2023-09-19T07:08:45;99280.22;;;17.69;100.00
10824;BME280;39116;59.332;18.034;2023-09-19T07:11:07;99280.63;;;17.60;100.00
10824;BME280;39116;59.332;18.034;2023-09-19T07:13:29;99270.22;;;17.56;100.00
10824;BME280;39116;59.332;18.034;2023-09-19T07:15:51;99268.34;;;18.00;100.00
10824;BME280;39116;59.332;18.034;2023-09-19T07:18:14;99266.28;;;17.67;100.00
10824;BME280;39116;59.332;18.034;2023-09-19T07:20:38;99262.09;;;17.63;100.00
10824;BME280;39116;59.332;18.034;2023-09-19T07:23:00;99269.13;;;17.62;100.00
10824;BME280;39116;59.332;18.034;2023-09-19T07:25:22;99258.13;;;17.73;100.00
10824;BME280;39116;59.332;18.034;2023-09-19T07:27:44;99239.38;;;17.60;100.00
10824;BME280;39116;59.332;18.034;2023-09-19T07:30:07;99250.78;;;17.61;100.00
10824;BME280;39116;59.332;18.034;2023-09-19T07:32:29;99234.91;;;18.02;100.00
10824;BME280;39116;59.332;18.034;2023-09-19T07:34:51;99214.81;;;18.18;100.00
10824;BME280;39116;59.332;18.034;2023-09-19T07:37:17;99203.69;;;18.30;100.00
10824;BME280;39116;59.332;18.034;2023-09-19T07:39:39;99184.28;;;17.57;100.00
10824;BME280;39116;59.332;18.034;2023-09-19T07:42:02;99221.84;;;17.80;100.00
10824;BME280;39116;59.332;18.034;2023-09-19T07:44:24;99197.91;;;17.86;100.00
10824;BME280;39116;59.332;18.034;2023-09-19T07:46:46;99210.41;;;18.00;100.00
10824;BME280;39116;59.332;18.034;2023-09-19T07:49:11;99207.94;;;17.97;100.00
10824;BME280;39116;59.332;18.034;2023-09-19T07:51:33;99206.16;;;17.97;100.00
10824;BME280;39116;59.332;18.034;2023-09-19T07:53:56;99179.53;;;18.03;100.00
10824;BME280;39116;59.332;18.034;2023-09-19T07:56:18;99167.00;;;18.08;100.00
10824;BME280;39116;59.332;18.034;2023-09-19T07:58:41;99175.47;;;18.15;100.00
10824;BME280;39116;59.332;18.034;2023-09-19T08:01:04;99083.72;;;17.50;100.00
10824;BME280;39116;59.332;18.034;2023-09-19T08:03:26;99181.81;;;18.11;100.00
10824;BME280;39116;59.332;18.034;2023-09-19T08:05:48;99180.94;;;18.10;100.00
10824;BME280;39116;59.332;18.034;2023-09-19T08:08:10;99180.22;;;18.07;100.00
10824;BME280;39116;59.332;18.034;2023-09-19T08:10:36;99180.94;;;18.10;100.00
10824;BME280;39116;59.332;18.034;2023-09-19T08:13:00;99182.38;;;17.99;100.00
10824;BME280;39116;59.332;18.034;2023-09-19T08:15:22;99179.63;;;18.19;100.00
10824;BME280;39116;59.332;18.034;2023-09-19T08:17:44;99168.94;;;18.41;100.00
10824;BME280;39116;59.332;18.034;2023-09-19T08:20:07;99172.88;;;18.33;100.00
10824;BME280;39116;59.332;18.034;2023-09-19T08:22:36;99154.56;;;18.29;100.00
10824;BME280;39116;59.332;18.034;2023-09-19T08:24:58;99169.34;;;18.32;100.00
10824;BME280;39116;59.332;18.034;2023-09-19T08:27:21;99169.19;;;18.54;100.00
10824;BME280;39116;59.332;18.034;2023-09-19T08:29:47;99166.28;;;18.59;100.00
10824;BME280;39116;59.332;18.034;2023-09-19T08:32:10;99116.16;;;18.25;100.00
10824;BME280;39116;59.332;18.034;2023-09-19T08:34:32;99162.50;;;18.47;100.00
10824;BME280;39116;59.332;18.034;2023-09-19T08:36:55;99171.78;;;18.37;100.00
10824;BME280;39116;59.332;18.034;2023-09-19T08:39:17;99149.69;;;18.39;100.00
10824;BME280;39116;59.332;18.034;2023-09-19T08:41:40;99153.13;;;18.41;100.00
10824;BME280;39116;59.332;18.034;2023-09-19T08:44:03;99153.38;;;18.54;100.00
10824;BME280;39116;59.332;18.034;2023-09-19T08:46:27;99141.72;;;18.41;100.00
10824;BME280;39116;59.332;18.034;2023-09-19T08:48:59;99141.25;;;18.50;100.00
10824;BME280;39116;59.332;18.034;2023-09-19T08:51:29;99139.09;;;18.76;100.00
10824;BME280;39116;59.332;18.034;2023-09-19T08:53:58;99139.94;;;18.76;100.00
10824;BME280;39116;59.332;18.034;2023-09-19T08:56:26;99137.25;;;18.95;100.00
10824;BME280;39116;59.332;18.034;2023-09-19T08:58:50;99139.09;;;18.93;100.00
10824;BME280;39116;59.332;18.034;2023-09-19T09:01:16;99119.00;;;19.08;100.00
10824;BME280;39116;59.332;18.034;2023-09-19T09:03:43;99115.66;;;19.04;100.00
10824;BME280;39116;59.332;18.034;2023-09-19T09:06:08;99118.31;;;18.87;100.00
10824;BME280;39116;59.332;18.034;2023-09-19T09:08:31;99102.41;;;19.06;100.00
10824;BME280;39116;59.332;18.034;2023-09-19T09:10:54;99092.03;;;19.19;100.00
10824;BME280;39116;59.332;18.034;2023-09-19T09:13:17;99082.38;;;19.51;100.00
10824;BME280;39116;59.332;18.034;2023-09-19T09:15:41;99075.97;;;19.39;100.00
10824;BME280;39116;59.332;18.034;2023-09-19T09:18:06;99064.81;;;19.50;100.00
10824;BME280;39116;59.332;18.034;2023-09-19T09:20:29;99061.88;;;19.56;100.00
10824;BME280;39116;59.332;18.034;2023-09-19T09:22:51;99032.75;;;19.26;100.00
10824;BME280;39116;59.332;18.034;2023-09-19T09:25:14;99044.31;;;19.39;100.00
10824;BME280;39116;59.332;18.034;2023-09-19T09:27:40;99053.41;;;19.65;100.00
10824;BME280;39116;59.332;18.034;2023-09-19T09:30:02;99052.91;;;19.59;100.00
10824;BME280;39116;59.332;18.034;2023-09-19T09:32:26;99038.19;;;19.71;100.00
10824;BME280;39116;59.332;18.034;2023-09-19T09:34:52;99039.66;;;19.76;100.00
10824;BME280;39116;59.332;18.034;2023-09-19T09:37:15;99039.47;;;19.79;100.00
10824;BME280;39116;59.332;18.034;2023-09-19T09:39:36;99052.41;;;19.84;100.00
10824;BME280;39116;59.332;18.034;2023-09-19T09:41:58;99044.56;;;19.82;100.00
10824;BME280;39116;59.332;18.034;2023-09-19T09:44:20;99053.22;;;20.00;100.00
10824;BME280;39116;59.332;18.034;2023-09-19T09:46:43;99049.00;;;19.82;100.00
10824;BME280;39116;59.332;18.034;2023-09-19T09:49:35;99058.94;;;19.93;100.00
10824;BME280;39116;59.332;18.034;2023-09-19T09:52:01;99059.56;;;19.82;100.00
10824;BME280;39116;59.332;18.034;2023-09-19T09:54:30;99037.16;;;19.73;100.00
10824;BME280;39116;59.332;18.034;2023-09-19T09:56:58;99043.88;;;19.63;100.00
10824;BME280;39116;59.332;18.034;2023-09-19T09:59:45;99035.72;;;19.52;100.00
10824;BME280;39116;59.332;18.034;2023-09-19T10:02:10;99053.50;;;19.48;100.00
10824;BME280;39116;59.332;18.034;2023-09-19T10:04:34;99054.19;;;19.52;100.00
10824;BME280;39116;59.332;18.034;2023-09-19T10:07:06;99054.09;;;19.53;100.00
10824;BME280;39116;59.332;18.034;2023-09-19T10:09:44;99044.75;;;19.63;100.00
10824;BME280;39116;59.332;18.034;2023-09-19T10:12:10;99032.63;;;19.59;100.00
10824;BME280;39116;59.332;18.034;2023-09-19T10:14:37;99030.81;;;19.92;100.00
10824;BME280;39116;59.332;18.034;2023-09-19T10:17:00;99025.25;;;20.12;100.00
10824;BME280;39116;59.332;18.034;2023-09-19T10:19:30;99016.31;;;20.29;100.00
10824;BME280;39116;59.332;18.034;2023-09-19T10:21:54;98983.22;;;19.93;100.00
10824;BME280;39116;59.332;18.034;2023-09-19T10:24:20;99003.88;;;19.87;100.00
10824;BME280;39116;59.332;18.034;2023-09-19T10:26:45;99006.97;;;19.93;100.00
10824;BME280;39116;59.332;18.034;2023-09-19T10:29:12;99006.88;;;19.95;100.00
10824;BME280;39116;59.332;18.034;2023-09-19T10:31:36;99010.69;;;19.59;100.00
10824;BME280;39116;59.332;18.034;2023-09-19T10:34:02;99012.72;;;19.86;100.00
10824;BME280;39116;59.332;18.034;2023-09-19T10:36:26;99017.06;;;19.55;100.00
10824;BME280;39116;59.332;18.034;2023-09-19T10:38:52;99016.19;;;19.70;100.00
10824;BME280;39116;59.332;18.034;2023-09-19T10:41:21;98999.56;;;20.00;100.00
10824;BME280;39116;59.332;18.034;2023-09-19T10:43:45;99001.84;;;20.20;100.00
10824;BME280;39116;59.332;18.034;2023-09-19T10:46:09;99009.91;;;20.19;100.00
10824;BME280;39116;59.332;18.034;2023-09-19T10:48:33;99003.56;;;20.21;100.00
10824;BME280;39116;59.332;18.034;2023-09-19T10:51:01;99010.16;;;19.84;100.00
10824;BME280;39116;59.332;18.034;2023-09-19T10:53:26;99006.31;;;19.90;100.00
10824;BME280;39116;59.332;18.034;2023-09-19T10:55:52;99012.72;;;19.86;100.00
10824;BME280;39116;59.332;18.034;2023-09-19T10:58:25;99009.41;;;20.12;100.00
10824;BME280;39116;59.332;18.034;2023-09-19T11:00:53;99007.13;;;19.76;100.00
10824;BME280;39116;59.332;18.034;2023-09-19T11:03:20;99009.44;;;20.27;100.00
10824;BME280;39116;59.332;18.034;2023-09-19T11:06:00;98999.56;;;20.00;100.00
10824;BME280;39116;59.332;18.034;2023-09-19T11:08:21;98999.00;;;20.09;100.00
10824;BME280;39116;59.332;18.034;2023-09-19T11:10:47;98998.41;;;20.04;100.00
10824;BME280;39116;59.332;18.034;2023-09-19T11:13:25;99002.16;;;19.70;100.00
10824;BME280;39116;59.332;18.034;2023-09-19T11:16:04;99021.06;;;19.94;100.00
10824;BME280;39116;59.332;18.034;2023-09-19T11:18:51;99009.69;;;19.92;100.00
10824;BME280;39116;59.332;18.034;2023-09-19T11:24:28;99003.47;;;20.23;100.00
10824;BME280;39116;59.332;18.034;2023-09-19T11:26:51;98993.84;;;20.22;100.00
10824;BME280;39116;59.332;18.034;2023-09-19T11:29:31;98974.34;;;20.39;100.00
10824;BME280;39116;59.332;18.034;2023-09-19T11:31:53;98990.53;;;20.18;100.00
10824;BME280;39116;59.332;18.034;2023-09-19T11:34:45;98979.09;;;20.03;100.00
10824;BME280;39116;59.332;18.034;2023-09-19T11:40:07;98976.88;;;19.65;100.00
10824;BME280;39116;59.332;18.034;2023-09-19T11:42:43;98963.09;;;19.76;100.00
10824;BME280;39116;59.332;18.034;2023-09-19T11:45:07;98936.78;;;19.59;100.00
10824;BME280;39116;59.332;18.034;2023-09-19T11:47:32;98953.81;;;19.53;100.00
10824;BME280;39116;59.332;18.034;2023-09-19T11:49:55;98960.06;;;19.67;100.00
10824;BME280;39116;59.332;18.034;2023-09-19T11:52:22;98958.56;;;19.62;100.00
10824;BME280;39116;59.332;18.034;2023-09-19T11:54:44;98950.69;;;19.93;100.00
10824;BME280;39116;59.332;18.034;2023-09-19T11:57:20;98971.94;;;20.06;100.00
10824;BME280;39116;59.332;18.034;2023-09-19T11:59:42;98981.47;;;20.08;100.00
10824;BME280;39116;59.332;18.034;2023-09-19T12:02:10;98951.09;;;20.15;100.00
10824;BME280;39116;59.332;18.034;2023-09-19T12:04:40;98965.75;;;20.35;100.00
10824;BME280;39116;59.332;18.034;2023-09-19T12:07:05;98928.66;;;20.08;100.00
10824;BME280;39116;59.332;18.034;2023-09-19T12:09:31;98954.44;;;20.33;100.00
10824;BME280;39116;59.332;18.034;2023-09-19T12:11:53;98970.41;;;20.01;100.00
10824;BME280;39116;59.332;18.034;2023-09-19T12:14:22;98975.75;;;19.86;100.00
10824;BME280;39116;59.332;18.034;2023-09-19T12:16:51;98969.28;;;19.75;100.00
10824;BME280;39116;59.332;18.034;2023-09-19T12:19:20;98985.78;;;19.63;100.00
10824;BME280;39116;59.332;18.034;2023-09-19T12:21:42;98955.19;;;19.44;100.00
10824;BME280;39116;59.332;18.034;2023-09-19T12:24:06;98965.41;;;19.51;100.00
10824;BME280;39116;59.332;18.034;2023-09-19T12:26:39;98972.88;;;19.74;100.00
10824;BME280;39116;59.332;18.034;2023-09-19T12:29:02;98967.59;;;19.74;100.00
10824;BME280;39116;59.332;18.034;2023-09-19T12:31:25;98984.41;;;19.88;100.00
10824;BME280;39116;59.332;18.034;2023-09-19T12:33:53;98963.75;;;20.10;100.00